createdAt,value
2023-03-29T00:01:35.397Z,98310.13
2023-03-29T00:04:06.502Z,98304.00
2023-03-29T00:06:38.538Z,98310.81
2023-03-29T00:09:10.313Z,98306.50
2023-03-29T00:11:41.400Z,98296.19
2023-03-29T00:14:13.387Z,98298.09
2023-03-29T00:16:45.465Z,98303.72
2023-03-29T00:19:16.361Z,98293.38
2023-03-29T00:21:46.490Z,98286.50
2023-03-29T00:24:17.376Z,98290.94
2023-03-29T00:26:47.295Z,98300.19
2023-03-29T00:29:19.296Z,98301.03
2023-03-29T00:31:54.146Z,98295.91
2023-03-29T00:34:30.883Z,98298.44
2023-03-29T00:37:01.174Z,98303.75
2023-03-29T00:39:32.887Z,98305.88
2023-03-29T00:42:03.042Z,98295.41
2023-03-29T00:45:02.763Z,98295.34
2023-03-29T00:47:37.790Z,98289.03
2023-03-29T00:50:15.385Z,98287.53
2023-03-29T00:52:48.992Z,98283.97
2023-03-29T00:55:23.684Z,98282.78
2023-03-29T00:57:56.090Z,98273.94
2023-03-29T01:00:32.201Z,98279.22
2023-03-29T01:03:03.471Z,98275.66
2023-03-29T01:05:37.882Z,98273.81
2023-03-29T01:08:13.163Z,98283.44
2023-03-29T01:10:47.403Z,98271.25
2023-03-29T01:13:23.489Z,98271.88
2023-03-29T01:15:56.756Z,98271.59
2023-03-29T01:18:26.583Z,98263.97
2023-03-29T01:21:12.746Z,98263.78
2023-03-29T01:24:07.357Z,98256.13
2023-03-29T01:26:45.185Z,98248.66
2023-03-29T01:29:22.069Z,98253.63
2023-03-29T01:31:57.157Z,98250.78
2023-03-29T01:34:31.512Z,98251.63
2023-03-29T01:37:06.667Z,98251.16
2023-03-29T01:39:37.035Z,98251.00
2023-03-29T01:42:18.835Z,98255.81
2023-03-29T01:44:56.850Z,98259.38
2023-03-29T01:47:33.152Z,98264.53
2023-03-29T01:50:10.077Z,98265.78
2023-03-29T01:52:44.637Z,98263.31
2023-03-29T01:55:17.544Z,98269.97
2023-03-29T01:57:49.510Z,98270.47
2023-03-29T02:00:25.233Z,98266.69
2023-03-29T02:03:01.166Z,98275.22
2023-03-29T02:05:32.797Z,98272.06
2023-03-29T02:08:05.964Z,98271.81
2023-03-29T02:10:37.665Z,98273.97
2023-03-29T02:13:08.448Z,98270.78
2023-03-29T02:15:40.408Z,98279.13
2023-03-29T02:18:11.723Z,98281.50
2023-03-29T02:20:44.683Z,98284.91
2023-03-29T02:23:21.938Z,98279.56
2023-03-29T02:25:53.847Z,98276.50
2023-03-29T02:28:25.704Z,98282.00
2023-03-29T02:31:03.819Z,98280.69
2023-03-29T02:33:36.902Z,98272.22
2023-03-29T02:36:12.197Z,98266.94
2023-03-29T02:38:42.956Z,98264.25
2023-03-29T02:41:13.703Z,98269.06
2023-03-29T02:43:45.912Z,98273.94
2023-03-29T02:46:18.972Z,98265.78
2023-03-29T02:48:51.715Z,98256.22
2023-03-29T02:51:24.216Z,98256.88
2023-03-29T02:53:59.014Z,98261.34
2023-03-29T02:56:29.770Z,98251.03
2023-03-29T02:58:59.706Z,98252.75
2023-03-29T03:01:31.699Z,98260.19
2023-03-29T03:04:02.962Z,98254.28
2023-03-29T03:06:38.013Z,98261.50
2023-03-29T03:09:10.946Z,98259.13
2023-03-29T03:11:41.157Z,98257.69
2023-03-29T03:14:11.785Z,98266.16
2023-03-29T03:16:43.422Z,98263.31
2023-03-29T03:19:14.683Z,98256.38
2023-03-29T03:21:47.341Z,98254.91
2023-03-29T03:24:17.883Z,98251.09
2023-03-29T03:26:48.421Z,98253.00
2023-03-29T03:29:19.636Z,98249.72
2023-03-29T03:31:54.179Z,98244.28
2023-03-29T03:34:26.754Z,98235.22
2023-03-29T03:36:58.632Z,98240.97
2023-03-29T03:39:30.904Z,98238.44
2023-03-29T03:42:02.069Z,98247.47
2023-03-29T03:44:33.179Z,98233.63
2023-03-29T03:47:08.036Z,98233.28
2023-03-29T03:49:39.769Z,98229.19
2023-03-29T03:52:11.811Z,98232.16
2023-03-29T03:54:42.587Z,98248.09
2023-03-29T03:57:13.408Z,98246.34
2023-03-29T03:59:44.268Z,98240.22
2023-03-29T04:02:16.814Z,98227.91
2023-03-29T04:04:48.925Z,98222.47
2023-03-29T04:07:20.362Z,98215.06
2023-03-29T04:09:50.933Z,98213.88
2023-03-29T04:12:21.107Z,98209.00
2023-03-29T04:14:51.006Z,98206.88
2023-03-29T04:17:22.983Z,98203.69
2023-03-29T04:19:53.856Z,98202.25
2023-03-29T04:22:25.636Z,98201.91
2023-03-29T04:24:56.798Z,98190.09
2023-03-29T04:27:26.992Z,98192.38
2023-03-29T04:29:57.740Z,98202.13
2023-03-29T04:32:30.045Z,98194.88
2023-03-29T04:34:59.771Z,98187.25
2023-03-29T04:37:30.290Z,98194.00
2023-03-29T04:40:01.174Z,98190.56
2023-03-29T04:42:31.809Z,98192.06
2023-03-29T04:45:02.515Z,98198.84
2023-03-29T04:47:36.644Z,98204.50
2023-03-29T04:50:08.463Z,98196.97
2023-03-29T04:52:38.837Z,98191.16
2023-03-29T04:55:12.690Z,98190.19
2023-03-29T04:57:46.875Z,98192.28
2023-03-29T05:00:20.891Z,98189.72
2023-03-29T05:02:53.324Z,98191.44
2023-03-29T05:05:23.281Z,98187.38
2023-03-29T05:07:53.686Z,98193.50
2023-03-29T05:10:23.741Z,98189.28
2023-03-29T05:12:56.901Z,98181.25
2023-03-29T05:15:26.913Z,98185.56
2023-03-29T05:17:59.232Z,98182.03
2023-03-29T05:20:30.055Z,98170.00
2023-03-29T05:23:01.125Z,98179.56
2023-03-29T05:25:31.698Z,98185.81
2023-03-29T05:28:02.680Z,98179.56
2023-03-29T05:30:32.542Z,98183.63
2023-03-29T05:33:07.337Z,98169.25
2023-03-29T05:35:38.253Z,98173.84
2023-03-29T05:38:09.500Z,98172.09
2023-03-29T05:40:41.701Z,98178.06
2023-03-29T05:43:12.811Z,98182.97
2023-03-29T05:45:43.530Z,98183.38
2023-03-29T05:48:15.663Z,98189.19
2023-03-29T05:50:51.114Z,98189.56
2023-03-29T05:53:22.915Z,98191.84
2023-03-29T05:55:54.426Z,98189.97
2023-03-29T05:58:27.017Z,98205.72
2023-03-29T06:00:57.996Z,98204.53
2023-03-29T06:03:30.774Z,98213.47
2023-03-29T06:06:02.625Z,98211.25
2023-03-29T06:08:33.162Z,98211.53
2023-03-29T06:11:05.368Z,98211.56
2023-03-29T06:13:37.660Z,98208.09
2023-03-29T06:16:09.496Z,98206.16
2023-03-29T06:18:41.490Z,98196.75
2023-03-29T06:21:11.168Z,98202.56
2023-03-29T06:23:42.592Z,98201.13
2023-03-29T06:26:13.138Z,98201.59
2023-03-29T06:28:43.231Z,98192.47
2023-03-29T06:31:13.869Z,98191.34
2023-03-29T06:33:45.938Z,98190.53
2023-03-29T06:36:17.354Z,98189.91
2023-03-29T06:38:47.312Z,98192.03
2023-03-29T06:41:18.156Z,98191.78
2023-03-29T06:43:49.096Z,98189.56
2023-03-29T06:46:19.778Z,98194.97
2023-03-29T06:48:51.698Z,98183.72
2023-03-29T06:51:23.523Z,98181.94
2023-03-29T06:53:53.609Z,98178.00
2023-03-29T06:56:24.348Z,98172.69
2023-03-29T06:58:55.237Z,98176.25
2023-03-29T07:01:25.547Z,98188.16
2023-03-29T07:03:58.936Z,98195.06
2023-03-29T07:06:29.079Z,98192.09
2023-03-29T07:09:00.012Z,98192.56
2023-03-29T07:11:31.986Z,98188.25
2023-03-29T07:14:05.417Z,98201.56
2023-03-29T07:16:37.284Z,98209.44
2023-03-29T07:19:10.463Z,98201.97
2023-03-29T07:21:41.010Z,98202.72
2023-03-29T07:24:11.678Z,98210.84
2023-03-29T07:26:52.225Z,98218.19
2023-03-29T07:29:31.263Z,98216.03
2023-03-29T07:32:01.619Z,98220.34
2023-03-29T07:34:33.608Z,98224.13
2023-03-29T07:37:04.023Z,98221.16
2023-03-29T07:39:34.487Z,98212.66
2023-03-29T07:42:04.787Z,98200.66
2023-03-29T07:44:35.987Z,98194.50
2023-03-29T07:47:07.215Z,98204.50
2023-03-29T07:49:38.940Z,98203.28
2023-03-29T07:52:09.875Z,98192.63
2023-03-29T07:54:40.769Z,98185.09
2023-03-29T07:57:11.327Z,98173.63
2023-03-29T07:59:42.186Z,98185.16
2023-03-29T08:02:13.637Z,98190.97
2023-03-29T08:04:47.222Z,98202.44
2023-03-29T08:07:19.501Z,98197.47
2023-03-29T08:09:50.332Z,98196.88
2023-03-29T08:12:22.561Z,98198.53
2023-03-29T08:14:54.850Z,98208.53
2023-03-29T08:17:25.835Z,98212.00
2023-03-29T08:19:58.651Z,98214.88
2023-03-29T08:22:28.791Z,98210.75
2023-03-29T08:24:59.348Z,98210.31
2023-03-29T08:27:29.223Z,98203.53
2023-03-29T08:30:00.343Z,98196.22
2023-03-29T08:32:30.785Z,98200.44
2023-03-29T08:35:04.650Z,98205.84
2023-03-29T08:37:35.645Z,98199.66
2023-03-29T08:40:07.310Z,98192.41
2023-03-29T08:42:58.466Z,98210.81
2023-03-29T08:45:34.659Z,98187.75
2023-03-29T08:48:14.365Z,98204.44
2023-03-29T08:50:49.413Z,98210.94
2023-03-29T08:53:21.235Z,98194.88
2023-03-29T08:55:52.320Z,98192.22
2023-03-29T08:58:25.309Z,98202.19
2023-03-29T09:00:57.658Z,98188.00
2023-03-29T09:03:31.633Z,98191.81
2023-03-29T09:06:08.044Z,98192.63
2023-03-29T09:08:41.333Z,98192.41
2023-03-29T09:11:33.378Z,98177.16
2023-03-29T09:14:12.338Z,98195.09
2023-03-29T09:16:50.046Z,98180.66
2023-03-29T09:19:28.764Z,98184.41
2023-03-29T09:22:07.759Z,98179.25
2023-03-29T09:24:54.801Z,98175.38
2023-03-29T09:27:28.185Z,98178.22
2023-03-29T09:30:25.137Z,98192.53
2023-03-29T09:32:57.670Z,98175.00
2023-03-29T09:35:33.555Z,98174.06
2023-03-29T09:38:06.281Z,98175.00
2023-03-29T09:40:42.936Z,98174.25
2023-03-29T09:43:16.557Z,98178.84
2023-03-29T09:45:50.258Z,98178.06
2023-03-29T09:48:22.280Z,98181.22
2023-03-29T09:50:53.688Z,98177.19
2023-03-29T09:53:26.806Z,98173.94
2023-03-29T09:55:57.164Z,98167.56
2023-03-29T09:58:48.196Z,98175.41
2023-03-29T10:01:19.833Z,98181.72
2023-03-29T10:03:54.670Z,98179.56
2023-03-29T10:06:27.189Z,98168.56
2023-03-29T10:08:59.633Z,98171.09
2023-03-29T10:11:34.137Z,98160.50
2023-03-29T10:14:05.705Z,98159.19
2023-03-29T10:16:39.053Z,98165.69
2023-03-29T10:19:22.705Z,98165.59
2023-03-29T10:21:54.389Z,98156.91
2023-03-29T10:24:27.718Z,98152.78
2023-03-29T10:27:01.644Z,98150.81
2023-03-29T10:29:39.640Z,98141.91
2023-03-29T10:32:18.083Z,98138.44
2023-03-29T10:34:49.312Z,98136.19
2023-03-29T10:37:22.039Z,98135.44
2023-03-29T10:39:53.954Z,98141.25
2023-03-29T10:42:27.340Z,98132.28
2023-03-29T10:44:59.471Z,98125.91
2023-03-29T10:47:35.796Z,98122.91
2023-03-29T10:50:10.126Z,98127.47
2023-03-29T10:52:42.833Z,98118.97
2023-03-29T10:55:19.028Z,98120.19
2023-03-29T10:57:58.272Z,98112.63
2023-03-29T11:00:35.344Z,98109.13
2023-03-29T11:03:28.713Z,98121.75
2023-03-29T11:06:04.523Z,98117.50
2023-03-29T11:08:44.301Z,98116.84
2023-03-29T11:11:45.924Z,98122.16
2023-03-29T11:14:28.338Z,98116.09
2023-03-29T11:17:07.119Z,98114.13
2023-03-29T11:19:55.776Z,98111.00
2023-03-29T11:22:34.527Z,98107.75
2023-03-29T11:25:30.314Z,98106.22
2023-03-29T11:28:08.452Z,98102.63
2023-03-29T11:30:43.145Z,98100.44
2023-03-29T11:33:24.146Z,98096.50
2023-03-29T11:35:58.454Z,98094.78
2023-03-29T11:38:34.246Z,98089.66
2023-03-29T11:41:07.886Z,98090.09
2023-03-29T11:43:44.971Z,98091.97
2023-03-29T11:46:17.871Z,98084.25
2023-03-29T11:48:53.406Z,98090.75
2023-03-29T11:51:28.416Z,98083.97
2023-03-29T11:54:03.393Z,98085.44
2023-03-29T11:56:38.134Z,98082.94
2023-03-29T11:59:17.069Z,98078.69
2023-03-29T12:01:50.898Z,98070.84
2023-03-29T12:04:24.018Z,98073.88
2023-03-29T12:07:01.788Z,98066.56
2023-03-29T12:09:36.001Z,98059.16
2023-03-29T12:12:10.524Z,98058.06
2023-03-29T12:14:55.943Z,98048.50
2023-03-29T12:17:31.864Z,98051.28
2023-03-29T12:20:08.303Z,98051.72
2023-03-29T12:22:39.905Z,98042.13
2023-03-29T12:25:14.308Z,98040.22
2023-03-29T12:27:51.841Z,98037.50
2023-03-29T12:30:53.343Z,98034.78
2023-03-29T12:33:36.778Z,98028.59
2023-03-29T12:36:19.768Z,98029.41
2023-03-29T12:38:52.691Z,98030.94
2023-03-29T12:41:24.597Z,98019.31
2023-03-29T12:43:54.867Z,98016.22
2023-03-29T12:46:28.068Z,98011.19
2023-03-29T12:49:00.005Z,98007.31
2023-03-29T12:51:33.193Z,97999.97
2023-03-29T12:54:09.377Z,98005.00
2023-03-29T12:56:43.550Z,98006.19
2023-03-29T12:59:36.499Z,98006.56
2023-03-29T13:02:37.646Z,98004.66
2023-03-29T13:05:30.085Z,98006.97
2023-03-29T13:08:00.664Z,98012.34
2023-03-29T13:10:41.608Z,98006.94
2023-03-29T13:13:19.079Z,98006.97
2023-03-29T13:15:50.780Z,98008.47
2023-03-29T13:18:53.385Z,98001.16
2023-03-29T13:21:29.788Z,97995.38
2023-03-29T13:24:07.824Z,97996.91
2023-03-29T13:26:51.794Z,97995.75
2023-03-29T13:29:58.475Z,97986.09
2023-03-29T13:32:53.074Z,97983.78
2023-03-29T13:35:33.731Z,97986.88
2023-03-29T13:38:11.425Z,97986.09
2023-03-29T13:40:48.709Z,97981.06
2023-03-29T13:43:25.343Z,97967.94
2023-03-29T13:46:20.841Z,97964.84
2023-03-29T13:48:57.437Z,97959.06
2023-03-29T13:51:40.819Z,97969.09
2023-03-29T13:54:30.185Z,97963.69
2023-03-29T13:57:13.536Z,97958.25
2023-03-29T13:59:56.512Z,97964.84
2023-03-29T14:02:47.390Z,97951.31
2023-03-29T14:05:21.224Z,97950.53
2023-03-29T14:07:55.575Z,97955.19
2023-03-29T14:10:29.498Z,97950.94
2023-03-29T14:13:04.581Z,97938.06
2023-03-29T14:15:46.817Z,97938.91
2023-03-29T14:18:19.642Z,97937.00
2023-03-29T14:20:54.163Z,97933.94
2023-03-29T14:23:32.303Z,97935.88
2023-03-29T14:26:11.897Z,97923.06
2023-03-29T14:28:47.614Z,97920.94
2023-03-29T14:31:33.766Z,97920.84
2023-03-29T14:34:06.379Z,97923.31
2023-03-29T14:36:36.744Z,97923.28
2023-03-29T14:39:13.564Z,97921.22
2023-03-29T14:41:48.711Z,97919.91
2023-03-29T14:44:22.222Z,97912.59
2023-03-29T14:46:53.502Z,97911.91
2023-03-29T14:49:25.061Z,97905.88
2023-03-29T14:51:59.549Z,97917.38
2023-03-29T14:54:36.302Z,97902.91
2023-03-29T14:57:09.549Z,97903.53
2023-03-29T14:59:41.007Z,97898.47
2023-03-29T15:02:28.455Z,97890.13
2023-03-29T15:05:03.709Z,97894.50
2023-03-29T15:07:35.393Z,97887.75
2023-03-29T15:10:08.780Z,97887.97
2023-03-29T15:12:40.143Z,97896.69
2023-03-29T15:15:13.986Z,97885.81
2023-03-29T15:17:51.830Z,97888.69
2023-03-29T15:20:24.772Z,97882.94
2023-03-29T15:22:58.145Z,97885.81
2023-03-29T15:25:35.568Z,97887.91
2023-03-29T15:28:07.230Z,97869.81
2023-03-29T15:30:40.827Z,97866.22
2023-03-29T15:33:18.074Z,97866.16
2023-03-29T15:35:53.131Z,97871.31
2023-03-29T15:38:30.333Z,97865.91
2023-03-29T15:41:10.925Z,97867.53
2023-03-29T15:43:42.874Z,97871.41
2023-03-29T15:46:15.051Z,97870.16
2023-03-29T15:48:46.639Z,97857.09
2023-03-29T15:51:17.505Z,97864.28
2023-03-29T15:53:49.111Z,97861.41
2023-03-29T15:56:23.793Z,97858.19
2023-03-29T15:58:54.580Z,97860.78
2023-03-29T16:01:34.009Z,97866.88
2023-03-29T16:04:05.715Z,97864.41
2023-03-29T16:06:37.867Z,97872.72
2023-03-29T16:09:08.923Z,97863.44
2023-03-29T16:11:47.146Z,97860.78
2023-03-29T16:14:27.392Z,97865.38
2023-03-29T16:17:00.180Z,97866.06
2023-03-29T16:19:34.390Z,97866.75
2023-03-29T16:22:08.098Z,97870.00
2023-03-29T16:24:39.668Z,97868.53
2023-03-29T16:27:11.448Z,97866.28
2023-03-29T16:29:41.796Z,97863.59
2023-03-29T16:32:13.484Z,97867.88
2023-03-29T16:34:43.661Z,97863.63
2023-03-29T16:37:14.463Z,97859.34
2023-03-29T16:39:46.809Z,97865.94
2023-03-29T16:42:19.392Z,97865.59
2023-03-29T16:44:49.980Z,97870.19
2023-03-29T16:47:23.169Z,97880.22
2023-03-29T16:49:53.767Z,97880.19
2023-03-29T16:52:25.310Z,97880.25
2023-03-29T16:54:55.610Z,97872.88
2023-03-29T16:57:28.571Z,97877.09
2023-03-29T17:00:00.007Z,97879.41
2023-03-29T17:02:31.050Z,97879.47
2023-03-29T17:05:00.868Z,97882.56
2023-03-29T17:07:32.608Z,97889.50
2023-03-29T17:10:04.958Z,97880.28
2023-03-29T17:12:41.898Z,97872.53
2023-03-29T17:15:12.730Z,97877.94
2023-03-29T17:17:43.591Z,97888.38
2023-03-29T17:20:15.782Z,97886.03
2023-03-29T17:22:46.502Z,97882.56
2023-03-29T17:25:17.084Z,97886.03
2023-03-29T17:27:49.176Z,97880.19
2023-03-29T17:30:19.339Z,97883.31
2023-03-29T17:32:54.133Z,97891.44
2023-03-29T17:35:25.240Z,97888.31
2023-03-29T17:37:56.444Z,97883.31
2023-03-29T17:40:27.902Z,97891.44
2023-03-29T17:43:00.144Z,97895.28
2023-03-29T17:45:32.569Z,97910.34
2023-03-29T17:48:06.241Z,97916.94
2023-03-29T17:50:37.486Z,97915.78
2023-03-29T17:53:07.563Z,97910.38
2023-03-29T17:55:41.250Z,97906.53
2023-03-29T17:58:13.810Z,97917.31
2023-03-29T18:00:44.458Z,97919.28
2023-03-29T18:03:15.651Z,97916.56
2023-03-29T18:05:45.843Z,97918.88
2023-03-29T18:08:17.541Z,97913.47
2023-03-29T18:10:47.982Z,97921.19
2023-03-29T18:13:25.717Z,97921.97
2023-03-29T18:16:02.781Z,97925.03
2023-03-29T18:18:33.408Z,97930.06
2023-03-29T18:21:07.108Z,97931.19
2023-03-29T18:23:40.172Z,97926.13
2023-03-29T18:26:10.644Z,97920.31
2023-03-29T18:28:44.222Z,97931.91
2023-03-29T18:31:14.569Z,97941.91
2023-03-29T18:33:47.477Z,97944.22
2023-03-29T18:36:17.897Z,97946.06
2023-03-29T18:38:49.273Z,97940.38
2023-03-29T18:41:21.267Z,97955.03
2023-03-29T18:43:58.150Z,97948.81
2023-03-29T18:46:31.554Z,97957.97
2023-03-29T18:49:02.737Z,97954.38
2023-03-29T18:51:34.074Z,97942.47
2023-03-29T18:54:06.365Z,97936.34
2023-03-29T18:56:37.220Z,97943.22
2023-03-29T18:59:10.127Z,97950.34
2023-03-29T19:01:41.533Z,97946.19
2023-03-29T19:04:13.917Z,97934.81
2023-03-29T19:06:44.560Z,97949.16
2023-03-29T19:09:14.635Z,97944.56
2023-03-29T19:11:48.101Z,97944.41
2023-03-29T19:14:23.795Z,97949.94
2023-03-29T19:16:54.197Z,97947.47
2023-03-29T19:19:26.495Z,97940.44
2023-03-29T19:21:59.084Z,97941.38
2023-03-29T19:24:31.048Z,97945.94
2023-03-29T19:27:02.635Z,97940.84
2023-03-29T19:29:34.896Z,97949.22
2023-03-29T19:32:07.247Z,97949.81
2023-03-29T19:34:37.879Z,97949.69
2023-03-29T19:37:08.623Z,97957.72
2023-03-29T19:39:40.594Z,97958.03
2023-03-29T19:42:10.769Z,97958.88
2023-03-29T19:44:43.546Z,97954.09
2023-03-29T19:47:13.932Z,97955.88
2023-03-29T19:49:46.552Z,97961.66
2023-03-29T19:52:17.105Z,97969.34
2023-03-29T19:54:47.925Z,97964.66
2023-03-29T19:57:17.815Z,97969.63
2023-03-29T19:59:52.115Z,97970.06
2023-03-29T20:02:23.754Z,97961.25
2023-03-29T20:04:55.933Z,97964.16
2023-03-29T20:07:26.099Z,97966.00
2023-03-29T20:09:56.847Z,97968.09
2023-03-29T20:12:30.685Z,97957.25
2023-03-29T20:15:02.754Z,97954.03
2023-03-29T20:17:35.798Z,97951.59
2023-03-29T20:20:15.406Z,97940.97
2023-03-29T20:22:47.438Z,97943.16
2023-03-29T20:25:17.755Z,97936.13
2023-03-29T20:27:49.168Z,97933.00
2023-03-29T20:30:21.567Z,97933.34
2023-03-29T20:32:53.086Z,97930.00
2023-03-29T20:35:27.437Z,97932.38
2023-03-29T20:37:57.597Z,97930.00
2023-03-29T20:40:29.190Z,97928.25
2023-03-29T20:42:59.357Z,97920.69
2023-03-29T20:45:39.860Z,97934.75
2023-03-29T20:48:17.220Z,97932.53
2023-03-29T20:50:48.926Z,97935.38
2023-03-29T20:53:20.613Z,97939.56
2023-03-29T20:55:52.451Z,97937.25
2023-03-29T20:58:24.094Z,97923.44
2023-03-29T21:00:56.386Z,97924.78
2023-03-29T21:03:28.906Z,97935.47
2023-03-29T21:06:02.462Z,97935.84
2023-03-29T21:08:34.204Z,97940.19
2023-03-29T21:11:05.723Z,97930.78
2023-03-29T21:13:37.331Z,97935.34
2023-03-29T21:16:16.789Z,97921.13
2023-03-29T21:18:47.365Z,97910.78
2023-03-29T21:21:17.913Z,97911.59
2023-03-29T21:23:48.680Z,97913.63
2023-03-29T21:26:19.735Z,97913.31
2023-03-29T21:28:49.915Z,97901.72
2023-03-29T21:31:25.670Z,97910.16
2023-03-29T21:33:57.056Z,97916.75
2023-03-29T21:36:29.648Z,97911.25
2023-03-29T21:38:59.720Z,97925.00
2023-03-29T21:41:30.430Z,97928.31
2023-03-29T21:44:00.813Z,97934.78
2023-03-29T21:46:32.864Z,97924.78
2023-03-29T21:49:03.830Z,97921.69
2023-03-29T21:51:35.733Z,97928.72
2023-03-29T21:54:06.002Z,97942.16
2023-03-29T21:56:36.844Z,97924.69
2023-03-29T21:59:07.793Z,97918.28
2023-03-29T22:01:40.545Z,97916.78
2023-03-29T22:04:12.324Z,97900.16
2023-03-29T22:06:43.595Z,97892.13
2023-03-29T22:09:14.210Z,97892.34
2023-03-29T22:11:45.332Z,97897.41
2023-03-29T22:14:16.709Z,97900.06
2023-03-29T22:16:48.624Z,97897.56
2023-03-29T22:19:20.318Z,97888.06
2023-03-29T22:21:52.451Z,97893.84
2023-03-29T22:24:22.974Z,97894.16
2023-03-29T22:26:53.241Z,97895.03
2023-03-29T22:29:24.091Z,97893.19
2023-03-29T22:31:56.106Z,97900.50
2023-03-29T22:34:27.387Z,97903.94
2023-03-29T22:36:57.332Z,97900.44
2023-03-29T22:39:28.859Z,97897.16
2023-03-29T22:41:59.358Z,97895.47
2023-03-29T22:44:30.378Z,97884.56
2023-03-29T22:47:05.015Z,97885.91
2023-03-29T22:49:36.634Z,97874.88
2023-03-29T22:52:07.251Z,97888.31
2023-03-29T22:54:37.953Z,97880.25
2023-03-29T22:57:13.743Z,97878.63
2023-03-29T22:59:43.584Z,97878.38
2023-03-29T23:02:15.444Z,97871.06
2023-03-29T23:04:45.914Z,97869.31
2023-03-29T23:07:16.339Z,97867.50
2023-03-29T23:09:47.549Z,97862.84
2023-03-29T23:12:18.012Z,97868.25
2023-03-29T23:14:48.190Z,97862.25
2023-03-29T23:17:21.075Z,97872.25
2023-03-29T23:19:52.352Z,97862.69
2023-03-29T23:22:23.373Z,97856.03
2023-03-29T23:24:54.104Z,97856.41
2023-03-29T23:27:26.093Z,97858.44
2023-03-29T23:29:57.390Z,97872.88
2023-03-29T23:32:28.855Z,97870.66
2023-03-29T23:35:00.352Z,97873.47
2023-03-29T23:37:30.796Z,97875.69
2023-03-29T23:40:01.127Z,97856.75
2023-03-29T23:42:32.755Z,97846.66
2023-03-29T23:45:04.605Z,97840.72
2023-03-29T23:47:37.069Z,97849.66
2023-03-29T23:50:10.415Z,97858.59
2023-03-29T23:52:41.392Z,97857.81
2023-03-29T23:55:16.579Z,97846.66
2023-03-29T23:57:46.511Z,97838.47
